sensor_id;sensor_type;location;lat;lon;timestamp;temperature;humidity
2435;DHT22;1228;51.022;6.764;2023-04-24T00:00:54;11.00;99.90
2435;DHT22;1228;51.022;6.764;2023-04-24T00:03:22;11.10;99.90
2435;DHT22;1228;51.022;6.764;2023-04-24T00:05:48;11.10;99.90
2435;DHT22;1228;51.022;6.764;2023-04-24T00:08:14;11.20;99.90
2435;DHT22;1228;51.022;6.764;2023-04-24T00:10:40;11.20;99.90
2435;DHT22;1228;51.022;6.764;2023-04-24T00:13:06;11.30;99.90
2435;DHT22;1228;51.022;6.764;2023-04-24T00:15:31;11.30;99.90
2435;DHT22;1228;51.022;6.764;2023-04-24T00:17:57;11.40;99.90
2435;DHT22;1228;51.022;6.764;2023-04-24T00:20:23;11.40;99.90
2435;DHT22;1228;51.022;6.764;2023-04-24T00:22:49;11.40;99.90
2435;DHT22;1228;51.022;6.764;2023-04-24T00:25:15;11.40;99.90
2435;DHT22;1228;51.022;6.764;2023-04-24T00:27:40;11.50;99.90
2435;DHT22;1228;51.022;6.764;2023-04-24T00:30:06;11.50;99.90
2435;DHT22;1228;51.022;6.764;2023-04-24T00:32:32;11.50;99.90
2435;DHT22;1228;51.022;6.764;2023-04-24T00:34:57;11.50;99.90
2435;DHT22;1228;51.022;6.764;2023-04-24T00:37:23;11.50;99.90
2435;DHT22;1228;51.022;6.764;2023-04-24T00:39:49;11.60;99.90
2435;DHT22;1228;51.022;6.764;2023-04-24T00:42:14;11.50;99.90
2435;DHT22;1228;51.022;6.764;2023-04-24T00:44:40;11.50;99.90
2435;DHT22;1228;51.022;6.764;2023-04-24T00:47:06;11.50;99.90
2435;DHT22;1228;51.022;6.764;2023-04-24T00:49:32;11.50;99.90
2435;DHT22;1228;51.022;6.764;2023-04-24T00:51:58;11.60;99.90
2435;DHT22;1228;51.022;6.764;2023-04-24T00:54:24;11.50;99.90
2435;DHT22;1228;51.022;6.764;2023-04-24T00:56:50;11.50;99.90
2435;DHT22;1228;51.022;6.764;2023-04-24T00:59:17;11.50;99.90
2435;DHT22;1228;51.022;6.764;2023-04-24T01:01:44;11.50;99.90
2435;DHT22;1228;51.022;6.764;2023-04-24T01:04:11;11.50;99.90
2435;DHT22;1228;51.022;6.764;2023-04-24T01:06:41;11.50;99.90
2435;DHT22;1228;51.022;6.764;2023-04-24T01:09:09;11.50;99.90
2435;DHT22;1228;51.022;6.764;2023-04-24T01:11:36;11.40;99.90
2435;DHT22;1228;51.022;6.764;2023-04-24T01:14:02;11.40;99.90
2435;DHT22;1228;51.022;6.764;2023-04-24T01:16:28;11.30;99.90
2435;DHT22;1228;51.022;6.764;2023-04-24T01:18:53;11.20;99.90
2435;DHT22;1228;51.022;6.764;2023-04-24T01:21:21;11.10;99.90
2435;DHT22;1228;51.022;6.764;2023-04-24T01:23:47;10.90;99.90
2435;DHT22;1228;51.022;6.764;2023-04-24T01:26:14;10.70;99.90
2435;DHT22;1228;51.022;6.764;2023-04-24T01:28:40;10.60;99.90
2435;DHT22;1228;51.022;6.764;2023-04-24T01:31:06;10.40;99.90
2435;DHT22;1228;51.022;6.764;2023-04-24T01:33:32;10.20;99.90
2435;DHT22;1228;51.022;6.764;2023-04-24T01:35:58;10.10;99.90
2435;DHT22;1228;51.022;6.764;2023-04-24T01:38:24;9.90;99.90
2435;DHT22;1228;51.022;6.764;2023-04-24T01:40:50;9.80;99.90
2435;DHT22;1228;51.022;6.764;2023-04-24T01:43:16;9.70;99.90
2435;DHT22;1228;51.022;6.764;2023-04-24T01:45:42;9.60;99.90
2435;DHT22;1228;51.022;6.764;2023-04-24T01:48:07;9.50;99.90
2435;DHT22;1228;51.022;6.764;2023-04-24T01:50:33;9.50;99.90
2435;DHT22;1228;51.022;6.764;2023-04-24T01:52:59;9.40;99.90
2435;DHT22;1228;51.022;6.764;2023-04-24T01:55:24;9.40;99.90
2435;DHT22;1228;51.022;6.764;2023-04-24T01:57:52;9.30;99.90
2435;DHT22;1228;51.022;6.764;2023-04-24T02:00:19;9.30;99.90
2435;DHT22;1228;51.022;6.764;2023-04-24T02:02:45;9.30;99.90
2435;DHT22;1228;51.022;6.764;2023-04-24T02:05:11;9.30;99.90
2435;DHT22;1228;51.022;6.764;2023-04-24T02:07:36;9.30;99.90
2435;DHT22;1228;51.022;6.764;2023-04-24T02:10:02;9.30;99.90
2435;DHT22;1228;51.022;6.764;2023-04-24T02:12:29;9.40;99.90
2435;DHT22;1228;51.022;6.764;2023-04-24T02:14:55;9.40;99.90
2435;DHT22;1228;51.022;6.764;2023-04-24T02:17:20;9.40;99.90
2435;DHT22;1228;51.022;6.764;2023-04-24T02:19:46;9.50;99.90
2435;DHT22;1228;51.022;6.764;2023-04-24T02:22:12;9.50;99.90
2435;DHT22;1228;51.022;6.764;2023-04-24T02:24:38;9.60;99.90
2435;DHT22;1228;51.022;6.764;2023-04-24T02:27:04;9.60;99.90
2435;DHT22;1228;51.022;6.764;2023-04-24T02:29:30;9.70;99.90
2435;DHT22;1228;51.022;6.764;2023-04-24T02:31:56;9.70;99.90
2435;DHT22;1228;51.022;6.764;2023-04-24T02:34:22;9.80;99.90
2435;DHT22;1228;51.022;6.764;2023-04-24T02:36:48;9.80;99.90
2435;DHT22;1228;51.022;6.764;2023-04-24T02:39:14;9.80;99.90
2435;DHT22;1228;51.022;6.764;2023-04-24T02:41:45;9.90;99.90
2435;DHT22;1228;51.022;6.764;2023-04-24T02:44:10;9.90;99.90
2435;DHT22;1228;51.022;6.764;2023-04-24T02:46:36;9.90;99.90
2435;DHT22;1228;51.022;6.764;2023-04-24T02:49:02;10.00;99.90
2435;DHT22;1228;51.022;6.764;2023-04-24T02:51:28;10.00;99.90
2435;DHT22;1228;51.022;6.764;2023-04-24T02:53:53;10.00;99.90
2435;DHT22;1228;51.022;6.764;2023-04-24T02:56:19;10.00;99.90
2435;DHT22;1228;51.022;6.764;2023-04-24T02:58:45;10.00;99.90
2435;DHT22;1228;51.022;6.764;2023-04-24T03:01:10;10.00;99.90
2435;DHT22;1228;51.022;6.764;2023-04-24T03:03:37;10.00;99.90
2435;DHT22;1228;51.022;6.764;2023-04-24T03:06:03;10.00;99.90
2435;DHT22;1228;51.022;6.764;2023-04-24T03:08:31;10.00;99.90
2435;DHT22;1228;51.022;6.764;2023-04-24T03:10:57;10.00;99.90
2435;DHT22;1228;51.022;6.764;2023-04-24T03:13:22;10.00;99.90
2435;DHT22;1228;51.022;6.764;2023-04-24T03:15:48;10.00;99.90
2435;DHT22;1228;51.022;6.764;2023-04-24T03:18:14;10.00;99.90
2435;DHT22;1228;51.022;6.764;2023-04-24T03:20:39;10.00;99.90
2435;DHT22;1228;51.022;6.764;2023-04-24T03:23:06;9.90;99.90
2435;DHT22;1228;51.022;6.764;2023-04-24T03:25:32;9.90;99.90
2435;DHT22;1228;51.022;6.764;2023-04-24T03:27:57;9.90;99.90
2435;DHT22;1228;51.022;6.764;2023-04-24T03:30:23;9.90;99.90
2435;DHT22;1228;51.022;6.764;2023-04-24T03:32:48;9.90;99.90
2435;DHT22;1228;51.022;6.764;2023-04-24T03:35:14;9.90;99.90
2435;DHT22;1228;51.022;6.764;2023-04-24T03:37:39;9.80;99.90
2435;DHT22;1228;51.022;6.764;2023-04-24T03:40:06;9.80;99.90
2435;DHT22;1228;51.022;6.764;2023-04-24T03:42:32;9.80;99.90
2435;DHT22;1228;51.022;6.764;2023-04-24T03:44:58;9.80;99.90
2435;DHT22;1228;51.022;6.764;2023-04-24T03:47:23;9.80;99.90
2435;DHT22;1228;51.022;6.764;2023-04-24T03:49:49;9.80;99.90
2435;DHT22;1228;51.022;6.764;2023-04-24T03:52:15;9.80;99.90
2435;DHT22;1228;51.022;6.764;2023-04-24T03:54:40;9.90;99.90
2435;DHT22;1228;51.022;6.764;2023-04-24T03:57:06;9.90;99.90
2435;DHT22;1228;51.022;6.764;2023-04-24T03:59:32;9.90;99.90
2435;DHT22;1228;51.022;6.764;2023-04-24T04:01:57;9.90;99.90
2435;DHT22;1228;51.022;6.764;2023-04-24T04:04:23;9.90;99.90
2435;DHT22;1228;51.022;6.764;2023-04-24T04:06:48;9.80;99.90
2435;DHT22;1228;51.022;6.764;2023-04-24T04:09:14;9.80;99.90
2435;DHT22;1228;51.022;6.764;2023-04-24T04:11:40;9.80;99.90
2435;DHT22;1228;51.022;6.764;2023-04-24T04:14:05;9.70;99.90
2435;DHT22;1228;51.022;6.764;2023-04-24T04:16:31;9.80;99.90
2435;DHT22;1228;51.022;6.764;2023-04-24T04:18:57;9.80;99.90
2435;DHT22;1228;51.022;6.764;2023-04-24T04:21:22;9.80;99.90
2435;DHT22;1228;51.022;6.764;2023-04-24T04:23:48;9.80;99.90
2435;DHT22;1228;51.022;6.764;2023-04-24T04:26:13;9.80;99.90
2435;DHT22;1228;51.022;6.764;2023-04-24T04:28:39;9.80;99.90
2435;DHT22;1228;51.022;6.764;2023-04-24T04:31:05;9.80;99.90
2435;DHT22;1228;51.022;6.764;2023-04-24T04:33:33;9.80;99.90
2435;DHT22;1228;51.022;6.764;2023-04-24T04:35:59;9.80;99.90
2435;DHT22;1228;51.022;6.764;2023-04-24T04:38:25;9.80;99.90
2435;DHT22;1228;51.022;6.764;2023-04-24T04:40:55;9.80;99.90
2435;DHT22;1228;51.022;6.764;2023-04-24T04:43:23;9.80;99.90
2435;DHT22;1228;51.022;6.764;2023-04-24T04:45:49;9.80;99.90
2435;DHT22;1228;51.022;6.764;2023-04-24T04:48:16;9.80;99.90
2435;DHT22;1228;51.022;6.764;2023-04-24T04:50:43;9.80;99.90
2435;DHT22;1228;51.022;6.764;2023-04-24T04:53:08;9.80;99.90
2435;DHT22;1228;51.022;6.764;2023-04-24T04:55:34;9.80;99.90
2435;DHT22;1228;51.022;6.764;2023-04-24T04:58:00;9.80;99.90
2435;DHT22;1228;51.022;6.764;2023-04-24T05:00:26;9.80;99.90
2435;DHT22;1228;51.022;6.764;2023-04-24T05:02:52;9.90;99.90
2435;DHT22;1228;51.022;6.764;2023-04-24T05:05:18;9.90;99.90
2435;DHT22;1228;51.022;6.764;2023-04-24T05:07:44;9.90;99.90
2435;DHT22;1228;51.022;6.764;2023-04-24T05:10:10;9.90;99.90
2435;DHT22;1228;51.022;6.764;2023-04-24T05:12:36;9.90;99.90
2435;DHT22;1228;51.022;6.764;2023-04-24T05:15:02;9.90;99.90
2435;DHT22;1228;51.022;6.764;2023-04-24T05:17:28;9.90;99.90
2435;DHT22;1228;51.022;6.764;2023-04-24T05:19:54;9.80;99.90
2435;DHT22;1228;51.022;6.764;2023-04-24T05:22:19;9.80;99.90
2435;DHT22;1228;51.022;6.764;2023-04-24T05:24:46;9.70;99.90
2435;DHT22;1228;51.022;6.764;2023-04-24T05:27:12;9.70;99.90
2435;DHT22;1228;51.022;6.764;2023-04-24T05:29:38;9.60;99.90
2435;DHT22;1228;51.022;6.764;2023-04-24T05:32:04;9.60;99.90
2435;DHT22;1228;51.022;6.764;2023-04-24T05:34:29;9.50;99.90
2435;DHT22;1228;51.022;6.764;2023-04-24T05:36:55;9.40;99.90
2435;DHT22;1228;51.022;6.764;2023-04-24T05:39:21;9.40;99.90
2435;DHT22;1228;51.022;6.764;2023-04-24T05:41:46;9.50;99.90
2435;DHT22;1228;51.022;6.764;2023-04-24T05:44:12;9.50;99.90
2435;DHT22;1228;51.022;6.764;2023-04-24T05:46:38;9.50;99.90
2435;DHT22;1228;51.022;6.764;2023-04-24T05:49:03;9.50;99.90
2435;DHT22;1228;51.022;6.764;2023-04-24T05:51:29;9.50;99.90
2435;DHT22;1228;51.022;6.764;2023-04-24T05:53:54;9.50;99.90
2435;DHT22;1228;51.022;6.764;2023-04-24T05:56:20;9.50;99.90
2435;DHT22;1228;51.022;6.764;2023-04-24T05:58:46;9.50;99.90
2435;DHT22;1228;51.022;6.764;2023-04-24T06:01:12;9.50;99.90
2435;DHT22;1228;51.022;6.764;2023-04-24T06:03:40;9.50;99.90
2435;DHT22;1228;51.022;6.764;2023-04-24T06:06:06;9.50;99.90
2435;DHT22;1228;51.022;6.764;2023-04-24T06:08:32;9.50;99.90
2435;DHT22;1228;51.022;6.764;2023-04-24T06:10:58;9.50;99.90
2435;DHT22;1228;51.022;6.764;2023-04-24T06:13:24;9.50;99.90
2435;DHT22;1228;51.022;6.764;2023-04-24T06:15:49;9.50;99.90
2435;DHT22;1228;51.022;6.764;2023-04-24T06:18:15;9.50;99.90
2435;DHT22;1228;51.022;6.764;2023-04-24T06:20:41;9.50;99.90
2435;DHT22;1228;51.022;6.764;2023-04-24T06:23:06;9.40;99.90
2435;DHT22;1228;51.022;6.764;2023-04-24T06:25:32;9.30;99.90
2435;DHT22;1228;51.022;6.764;2023-04-24T06:27:58;9.20;99.90
2435;DHT22;1228;51.022;6.764;2023-04-24T06:30:23;9.10;99.90
2435;DHT22;1228;51.022;6.764;2023-04-24T06:32:49;9.10;99.90
2435;DHT22;1228;51.022;6.764;2023-04-24T06:35:15;9.00;99.90
2435;DHT22;1228;51.022;6.764;2023-04-24T06:37:42;8.90;99.90
2435;DHT22;1228;51.022;6.764;2023-04-24T06:40:08;8.80;99.90
2435;DHT22;1228;51.022;6.764;2023-04-24T06:42:33;8.80;99.90
2435;DHT22;1228;51.022;6.764;2023-04-24T06:45:00;8.70;99.90
2435;DHT22;1228;51.022;6.764;2023-04-24T06:47:26;8.60;99.90
2435;DHT22;1228;51.022;6.764;2023-04-24T06:49:51;8.60;99.90
2435;DHT22;1228;51.022;6.764;2023-04-24T06:52:18;8.60;99.90
2435;DHT22;1228;51.022;6.764;2023-04-24T06:54:44;8.60;99.90
2435;DHT22;1228;51.022;6.764;2023-04-24T06:57:10;8.60;99.90
2435;DHT22;1228;51.022;6.764;2023-04-24T06:59:36;8.60;99.90
2435;DHT22;1228;51.022;6.764;2023-04-24T07:02:02;8.60;99.90
2435;DHT22;1228;51.022;6.764;2023-04-24T07:04:28;8.50;99.90
2435;DHT22;1228;51.022;6.764;2023-04-24T07:06:54;8.40;99.90
2435;DHT22;1228;51.022;6.764;2023-04-24T07:09:22;8.30;99.90
2435;DHT22;1228;51.022;6.764;2023-04-24T07:11:49;8.30;99.90
2435;DHT22;1228;51.022;6.764;2023-04-24T07:14:15;8.30;99.90
2435;DHT22;1228;51.022;6.764;2023-04-24T07:16:42;8.30;99.90
2435;DHT22;1228;51.022;6.764;2023-04-24T07:19:07;8.30;99.90
2435;DHT22;1228;51.022;6.764;2023-04-24T07:21:33;8.40;99.90
2435;DHT22;1228;51.022;6.764;2023-04-24T07:23:59;8.50;99.90
2435;DHT22;1228;51.022;6.764;2023-04-24T07:26:26;8.50;99.90
2435;DHT22;1228;51.022;6.764;2023-04-24T07:28:52;8.40;99.90
2435;DHT22;1228;51.022;6.764;2023-04-24T07:31:17;8.30;99.90
2435;DHT22;1228;51.022;6.764;2023-04-24T07:33:43;8.30;99.90
2435;DHT22;1228;51.022;6.764;2023-04-24T07:36:08;8.30;99.90
2435;DHT22;1228;51.022;6.764;2023-04-24T07:38:41;8.30;99.90
2435;DHT22;1228;51.022;6.764;2023-04-24T07:41:06;8.30;99.90
2435;DHT22;1228;51.022;6.764;2023-04-24T07:43:32;8.20;99.90
2435;DHT22;1228;51.022;6.764;2023-04-24T07:45:58;8.10;99.90
2435;DHT22;1228;51.022;6.764;2023-04-24T07:48:23;8.00;99.90
2435;DHT22;1228;51.022;6.764;2023-04-24T07:50:51;7.90;99.90
2435;DHT22;1228;51.022;6.764;2023-04-24T07:53:17;7.90;99.90
2435;DHT22;1228;51.022;6.764;2023-04-24T07:55:42;7.80;99.90
2435;DHT22;1228;51.022;6.764;2023-04-24T07:58:08;7.80;99.90
2435;DHT22;1228;51.022;6.764;2023-04-24T08:00:34;7.70;99.90
2435;DHT22;1228;51.022;6.764;2023-04-24T08:03:00;7.70;99.90
2435;DHT22;1228;51.022;6.764;2023-04-24T08:05:26;7.60;99.90
2435;DHT22;1228;51.022;6.764;2023-04-24T08:07:52;7.60;99.90
2435;DHT22;1228;51.022;6.764;2023-04-24T08:10:18;7.60;99.90
2435;DHT22;1228;51.022;6.764;2023-04-24T08:12:44;7.50;99.90
2435;DHT22;1228;51.022;6.764;2023-04-24T08:15:10;7.50;99.90
2435;DHT22;1228;51.022;6.764;2023-04-24T08:17:36;7.50;99.90
2435;DHT22;1228;51.022;6.764;2023-04-24T08:20:03;7.40;99.90
2435;DHT22;1228;51.022;6.764;2023-04-24T08:22:30;7.40;99.90
2435;DHT22;1228;51.022;6.764;2023-04-24T08:24:56;7.40;99.90
2435;DHT22;1228;51.022;6.764;2023-04-24T08:27:23;7.40;99.90
2435;DHT22;1228;51.022;6.764;2023-04-24T08:29:49;7.40;99.90
2435;DHT22;1228;51.022;6.764;2023-04-24T08:32:14;7.50;99.90
2435;DHT22;1228;51.022;6.764;2023-04-24T08:34:40;7.50;99.90
2435;DHT22;1228;51.022;6.764;2023-04-24T08:37:06;7.50;99.90
2435;DHT22;1228;51.022;6.764;2023-04-24T08:39:31;7.50;99.90
2435;DHT22;1228;51.022;6.764;2023-04-24T08:41:57;7.50;99.90
2435;DHT22;1228;51.022;6.764;2023-04-24T08:44:32;7.50;99.90
2435;DHT22;1228;51.022;6.764;2023-04-24T08:46:58;7.40;99.90
2435;DHT22;1228;51.022;6.764;2023-04-24T08:49:24;7.50;99.90
2435;DHT22;1228;51.022;6.764;2023-04-24T08:51:52;7.50;99.90
2435;DHT22;1228;51.022;6.764;2023-04-24T08:54:18;7.50;99.90
2435;DHT22;1228;51.022;6.764;2023-04-24T08:56:45;7.50;99.90
2435;DHT22;1228;51.022;6.764;2023-04-24T08:59:13;7.40;99.90
2435;DHT22;1228;51.022;6.764;2023-04-24T09:01:40;7.40;99.90
2435;DHT22;1228;51.022;6.764;2023-04-24T09:04:07;7.40;99.90
2435;DHT22;1228;51.022;6.764;2023-04-24T09:06:35;7.40;99.90
2435;DHT22;1228;51.022;6.764;2023-04-24T09:09:01;7.50;99.90
2435;DHT22;1228;51.022;6.764;2023-04-24T09:11:30;7.50;99.90
2435;DHT22;1228;51.022;6.764;2023-04-24T09:13:56;7.50;99.90
2435;DHT22;1228;51.022;6.764;2023-04-24T09:16:22;7.60;99.90
2435;DHT22;1228;51.022;6.764;2023-04-24T09:18:49;7.60;99.90
2435;DHT22;1228;51.022;6.764;2023-04-24T09:21:15;7.60;99.90
2435;DHT22;1228;51.022;6.764;2023-04-24T09:23:41;7.60;99.90
2435;DHT22;1228;51.022;6.764;2023-04-24T09:26:09;7.70;99.90
2435;DHT22;1228;51.022;6.764;2023-04-24T09:28:39;7.70;99.90
2435;DHT22;1228;51.022;6.764;2023-04-24T09:31:14;7.80;99.90
2435;DHT22;1228;51.022;6.764;2023-04-24T09:33:54;7.90;99.90
2435;DHT22;1228;51.022;6.764;2023-04-24T09:36:27;7.90;99.90
2435;DHT22;1228;51.022;6.764;2023-04-24T09:38:57;8.00;99.90
2435;DHT22;1228;51.022;6.764;2023-04-24T09:41:23;8.10;99.90
2435;DHT22;1228;51.022;6.764;2023-04-24T09:43:48;8.20;99.90
2435;DHT22;1228;51.022;6.764;2023-04-24T09:46:14;8.20;99.90
2435;DHT22;1228;51.022;6.764;2023-04-24T09:48:39;8.30;99.90
2435;DHT22;1228;51.022;6.764;2023-04-24T09:51:06;8.40;99.90
2435;DHT22;1228;51.022;6.764;2023-04-24T09:53:37;8.50;99.90
2435;DHT22;1228;51.022;6.764;2023-04-24T09:56:11;8.60;99.90
2435;DHT22;1228;51.022;6.764;2023-04-24T09:58:38;8.70;99.90
2435;DHT22;1228;51.022;6.764;2023-04-24T10:01:04;8.80;99.90
2435;DHT22;1228;51.022;6.764;2023-04-24T10:03:31;8.90;99.90
2435;DHT22;1228;51.022;6.764;2023-04-24T10:06:01;8.90;99.90
2435;DHT22;1228;51.022;6.764;2023-04-24T10:08:33;9.00;99.90
2435;DHT22;1228;51.022;6.764;2023-04-24T10:11:00;9.10;99.90
2435;DHT22;1228;51.022;6.764;2023-04-24T10:13:26;9.00;99.90
2435;DHT22;1228;51.022;6.764;2023-04-24T10:15:53;9.10;99.90
2435;DHT22;1228;51.022;6.764;2023-04-24T10:18:20;9.30;99.90
2435;DHT22;1228;51.022;6.764;2023-04-24T10:20:46;9.30;99.90
2435;DHT22;1228;51.022;6.764;2023-04-24T10:23:12;9.40;99.90
2435;DHT22;1228;51.022;6.764;2023-04-24T10:25:38;9.30;99.90
2435;DHT22;1228;51.022;6.764;2023-04-24T10:28:05;9.40;99.90
2435;DHT22;1228;51.022;6.764;2023-04-24T10:30:33;9.40;99.90
2435;DHT22;1228;51.022;6.764;2023-04-24T10:33:02;9.30;99.90
2435;DHT22;1228;51.022;6.764;2023-04-24T10:35:31;9.30;99.90
2435;DHT22;1228;51.022;6.764;2023-04-24T10:38:01;9.20;99.90
2435;DHT22;1228;51.022;6.764;2023-04-24T10:40:33;9.00;99.90
2435;DHT22;1228;51.022;6.764;2023-04-24T10:43:02;9.00;99.90
2435;DHT22;1228;51.022;6.764;2023-04-24T10:45:28;9.00;99.90
2435;DHT22;1228;51.022;6.764;2023-04-24T10:48:05;8.90;99.90
2435;DHT22;1228;51.022;6.764;2023-04-24T10:50:52;8.80;99.90
2435;DHT22;1228;51.022;6.764;2023-04-24T10:53:29;8.70;99.90
2435;DHT22;1228;51.022;6.764;2023-04-24T10:56:08;8.60;99.90
2435;DHT22;1228;51.022;6.764;2023-04-24T10:58:44;8.40;99.90
2435;DHT22;1228;51.022;6.764;2023-04-24T11:01:31;8.30;99.90
2435;DHT22;1228;51.022;6.764;2023-04-24T11:04:00;8.30;99.90
2435;DHT22;1228;51.022;6.764;2023-04-24T11:06:35;8.30;99.90
2435;DHT22;1228;51.022;6.764;2023-04-24T11:09:08;8.30;99.90
2435;DHT22;1228;51.022;6.764;2023-04-24T11:11:36;8.50;99.90
2435;DHT22;1228;51.022;6.764;2023-04-24T11:14:04;8.80;99.90
2435;DHT22;1228;51.022;6.764;2023-04-24T11:27:13;10.60;99.90
2435;DHT22;1228;51.022;6.764;2023-04-24T11:32:50;10.60;99.90
2435;DHT22;1228;51.022;6.764;2023-04-24T11:35:18;10.40;99.90
2435;DHT22;1228;51.022;6.764;2023-04-24T11:37:49;10.50;99.90
2435;DHT22;1228;51.022;6.764;2023-04-24T11:40:15;10.60;99.90
2435;DHT22;1228;51.022;6.764;2023-04-24T11:42:46;10.80;99.90
2435;DHT22;1228;51.022;6.764;2023-04-24T11:45:32;10.80;99.90
2435;DHT22;1228;51.022;6.764;2023-04-24T11:47:58;10.80;99.90
2435;DHT22;1228;51.022;6.764;2023-04-24T11:50:26;10.90;99.90
2435;DHT22;1228;51.022;6.764;2023-04-24T11:52:52;11.00;99.90
2435;DHT22;1228;51.022;6.764;2023-04-24T11:57:49;11.10;99.90
2435;DHT22;1228;51.022;6.764;2023-04-24T12:00:21;11.10;99.90
2435;DHT22;1228;51.022;6.764;2023-04-24T12:02:47;11.10;99.90
2435;DHT22;1228;51.022;6.764;2023-04-24T12:05:24;11.00;99.90
2435;DHT22;1228;51.022;6.764;2023-04-24T12:07:50;10.90;99.90
2435;DHT22;1228;51.022;6.764;2023-04-24T12:10:23;10.80;99.90
2435;DHT22;1228;51.022;6.764;2023-04-24T12:12:50;10.70;99.90
2435;DHT22;1228;51.022;6.764;2023-04-24T12:15:17;10.80;99.90
2435;DHT22;1228;51.022;6.764;2023-04-24T12:17:43;10.80;99.90
2435;DHT22;1228;51.022;6.764;2023-04-24T12:20:09;10.70;99.90
2435;DHT22;1228;51.022;6.764;2023-04-24T12:25:17;11.10;99.90
2435;DHT22;1228;51.022;6.764;2023-04-24T12:27:44;11.50;99.90
2435;DHT22;1228;51.022;6.764;2023-04-24T12:30:15;12.10;99.90
2435;DHT22;1228;51.022;6.764;2023-04-24T12:32:46;12.60;99.90
2435;DHT22;1228;51.022;6.764;2023-04-24T12:35:12;12.70;99.90
2435;DHT22;1228;51.022;6.764;2023-04-24T12:37:38;12.50;99.90
2435;DHT22;1228;51.022;6.764;2023-04-24T12:40:09;12.40;99.90
2435;DHT22;1228;51.022;6.764;2023-04-24T12:42:36;12.10;99.90
2435;DHT22;1228;51.022;6.764;2023-04-24T12:45:07;12.00;99.90
2435;DHT22;1228;51.022;6.764;2023-04-24T12:47:34;12.20;99.90
2435;DHT22;1228;51.022;6.764;2023-04-24T12:50:00;12.30;99.90
2435;DHT22;1228;51.022;6.764;2023-04-24T12:52:27;12.60;99.90
2435;DHT22;1228;51.022;6.764;2023-04-24T12:54:55;12.90;99.90
2435;DHT22;1228;51.022;6.764;2023-04-24T12:57:21;12.90;99.90
2435;DHT22;1228;51.022;6.764;2023-04-24T12:59:47;12.80;99.90
2435;DHT22;1228;51.022;6.764;2023-04-24T13:02:13;13.20;99.90
2435;DHT22;1228;51.022;6.764;2023-04-24T13:04:38;13.30;99.90
2435;DHT22;1228;51.022;6.764;2023-04-24T13:07:05;13.30;99.90
2435;DHT22;1228;51.022;6.764;2023-04-24T13:09:31;13.50;99.90
2435;DHT22;1228;51.022;6.764;2023-04-24T13:11:56;13.70;99.90
2435;DHT22;1228;51.022;6.764;2023-04-24T13:14:22;13.50;99.90
2435;DHT22;1228;51.022;6.764;2023-04-24T13:16:49;13.40;99.90
2435;DHT22;1228;51.022;6.764;2023-04-24T13:19:14;13.60;99.90
2435;DHT22;1228;51.022;6.764;2023-04-24T13:21:40;14.00;99.90
2435;DHT22;1228;51.022;6.764;2023-04-24T13:24:06;14.20;99.90
2435;DHT22;1228;51.022;6.764;2023-04-24T13:26:33;14.50;99.90
2435;DHT22;1228;51.022;6.764;2023-04-24T13:28:58;14.40;99.90
2435;DHT22;1228;51.022;6.764;2023-04-24T13:31:24;14.20;99.90
2435;DHT22;1228;51.022;6.764;2023-04-24T13:33:50;13.90;99.90
2435;DHT22;1228;51.022;6.764;2023-04-24T13:36:16;13.80;99.90
2435;DHT22;1228;51.022;6.764;2023-04-24T13:38:43;13.70;99.90
2435;DHT22;1228;51.022;6.764;2023-04-24T13:41:09;13.60;99.90
2435;DHT22;1228;51.022;6.764;2023-04-24T13:43:35;13.40;99.90
2435;DHT22;1228;51.022;6.764;2023-04-24T13:46:01;13.00;99.90
2435;DHT22;1228;51.022;6.764;2023-04-24T13:48:28;12.70;99.90
2435;DHT22;1228;51.022;6.764;2023-04-24T13:50:54;12.40;99.90
2435;DHT22;1228;51.022;6.764;2023-04-24T13:53:20;12.20;99.90
2435;DHT22;1228;51.022;6.764;2023-04-24T13:55:45;12.40;99.90
2435;DHT22;1228;51.022;6.764;2023-04-24T13:58:11;12.90;99.90
2435;DHT22;1228;51.022;6.764;2023-04-24T14:00:37;13.30;99.90
2435;DHT22;1228;51.022;6.764;2023-04-24T14:03:02;13.70;99.90
2435;DHT22;1228;51.022;6.764;2023-04-24T14:05:28;14.00;99.90
2435;DHT22;1228;51.022;6.764;2023-04-24T14:07:53;14.20;99.90
2435;DHT22;1228;51.022;6.764;2023-04-24T14:10:19;14.10;99.90
2435;DHT22;1228;51.022;6.764;2023-04-24T14:12:45;13.90;99.90
2435;DHT22;1228;51.022;6.764;2023-04-24T14:15:11;13.60;99.90
2435;DHT22;1228;51.022;6.764;2023-04-24T14:17:38;13.70;99.90
2435;DHT22;1228;51.022;6.764;2023-04-24T14:20:04;14.30;99.90
2435;DHT22;1228;51.022;6.764;2023-04-24T14:22:30;14.60;99.90
2435;DHT22;1228;51.022;6.764;2023-04-24T14:24:56;14.40;99.90
2435;DHT22;1228;51.022;6.764;2023-04-24T14:27:21;14.60;99.90
2435;DHT22;1228;51.022;6.764;2023-04-24T14:29:47;15.00;99.90
2435;DHT22;1228;51.022;6.764;2023-04-24T14:32:12;15.10;99.90
2435;DHT22;1228;51.022;6.764;2023-04-24T14:34:40;15.20;99.90
2435;DHT22;1228;51.022;6.764;2023-04-24T14:37:07;15.40;99.90
2435;DHT22;1228;51.022;6.764;2023-04-24T14:39:32;15.50;99.90
2435;DHT22;1228;51.022;6.764;2023-04-24T14:41:58;15.70;99.90
2435;DHT22;1228;51.022;6.764;2023-04-24T14:44:24;15.90;99.90
2435;DHT22;1228;51.022;6.764;2023-04-24T14:46:50;15.70;99.90
2435;DHT22;1228;51.022;6.764;2023-04-24T14:49:15;15.10;99.90
2435;DHT22;1228;51.022;6.764;2023-04-24T14:51:41;14.70;99.90
2435;DHT22;1228;51.022;6.764;2023-04-24T14:54:07;14.40;99.90
2435;DHT22;1228;51.022;6.764;2023-04-24T14:56:33;14.50;99.90
2435;DHT22;1228;51.022;6.764;2023-04-24T14:58:59;14.70;99.90
2435;DHT22;1228;51.022;6.764;2023-04-24T15:01:24;15.20;99.90
2435;DHT22;1228;51.022;6.764;2023-04-24T15:03:50;15.30;99.90
2435;DHT22;1228;51.022;6.764;2023-04-24T15:06:16;15.30;99.90
2435;DHT22;1228;51.022;6.764;2023-04-24T15:08:41;15.50;99.90
2435;DHT22;1228;51.022;6.764;2023-04-24T15:11:09;15.60;99.90
2435;DHT22;1228;51.022;6.764;2023-04-24T15:13:35;15.10;99.90
2435;DHT22;1228;51.022;6.764;2023-04-24T15:16:00;14.80;99.90
2435;DHT22;1228;51.022;6.764;2023-04-24T15:18:27;14.70;99.90
2435;DHT22;1228;51.022;6.764;2023-04-24T15:20:54;14.50;99.90
2435;DHT22;1228;51.022;6.764;2023-04-24T15:23:19;14.10;99.90
2435;DHT22;1228;51.022;6.764;2023-04-24T15:25:45;14.00;99.90
2435;DHT22;1228;51.022;6.764;2023-04-24T15:28:11;14.30;99.90
2435;DHT22;1228;51.022;6.764;2023-04-24T15:30:37;14.40;99.90
2435;DHT22;1228;51.022;6.764;2023-04-24T15:33:03;14.60;99.90
2435;DHT22;1228;51.022;6.764;2023-04-24T15:35:29;15.00;99.90
2435;DHT22;1228;51.022;6.764;2023-04-24T15:37:54;15.40;99.90
2435;DHT22;1228;51.022;6.764;2023-04-24T15:40:20;15.40;99.90
2435;DHT22;1228;51.022;6.764;2023-04-24T15:42:46;15.40;99.90
2435;DHT22;1228;51.022;6.764;2023-04-24T15:45:12;15.30;99.90
2435;DHT22;1228;51.022;6.764;2023-04-24T15:47:38;15.00;99.90
2435;DHT22;1228;51.022;6.764;2023-04-24T15:50:04;14.70;99.90
2435;DHT22;1228;51.022;6.764;2023-04-24T15:52:30;14.80;99.90
2435;DHT22;1228;51.022;6.764;2023-04-24T15:54:56;14.80;99.90
2435;DHT22;1228;51.022;6.764;2023-04-24T15:57:21;14.50;99.90
2435;DHT22;1228;51.022;6.764;2023-04-24T15:59:47;14.60;99.90
2435;DHT22;1228;51.022;6.764;2023-04-24T16:02:13;14.70;99.90
2435;DHT22;1228;51.022;6.764;2023-04-24T16:04:44;14.70;99.90
2435;DHT22;1228;51.022;6.764;2023-04-24T16:07:11;15.10;99.90
2435;DHT22;1228;51.022;6.764;2023-04-24T16:09:36;15.50;99.90
2435;DHT22;1228;51.022;6.764;2023-04-24T16:12:02;15.60;99.90
2435;DHT22;1228;51.022;6.764;2023-04-24T16:14:27;15.80;99.90
2435;DHT22;1228;51.022;6.764;2023-04-24T16:16:53;16.10;99.90
2435;DHT22;1228;51.022;6.764;2023-04-24T16:19:20;16.40;99.90
2435;DHT22;1228;51.022;6.764;2023-04-24T16:21:46;16.50;99.90
2435;DHT22;1228;51.022;6.764;2023-04-24T16:24:11;16.20;99.90